createdAt,value
2023-04-09T00:01:28.571Z,1.83
2023-04-09T00:04:33.293Z,1.71
2023-04-09T00:07:38.046Z,1.75
2023-04-09T00:10:42.931Z,1.82
2023-04-09T00:13:49.542Z,1.82
2023-04-09T00:16:54.473Z,1.73
2023-04-09T00:19:59.288Z,1.80
2023-04-09T00:23:04.280Z,1.86
2023-04-09T00:26:12.535Z,1.70
2023-04-09T00:29:19.289Z,1.72
2023-04-09T00:32:24.375Z,1.63
2023-04-09T00:35:29.681Z,1.58
2023-04-09T00:38:34.783Z,1.60
2023-04-09T00:41:39.834Z,1.66
2023-04-09T00:44:46.378Z,1.63
2023-04-09T00:47:51.448Z,1.56
2023-04-09T00:50:56.591Z,1.60
2023-04-09T00:54:01.638Z,1.69
2023-04-09T00:57:06.856Z,1.79
2023-04-09T01:00:14.044Z,1.93
2023-04-09T01:03:19.087Z,1.94
2023-04-09T01:06:24.212Z,2.01
2023-04-09T01:09:32.245Z,2.05
2023-04-09T01:12:44.357Z,2.13
2023-04-09T01:15:56.109Z,2.05
2023-04-09T01:19:04.572Z,2.09
2023-04-09T01:22:15.834Z,2.07
2023-04-09T01:25:35.165Z,2.13
2023-04-09T01:28:45.059Z,2.11
2023-04-09T01:31:51.520Z,2.06
2023-04-09T01:34:57.201Z,2.10
2023-04-09T01:38:03.876Z,2.09
2023-04-09T01:41:10.590Z,1.97
2023-04-09T01:44:18.210Z,1.79
2023-04-09T01:47:23.669Z,1.91
2023-04-09T01:50:28.849Z,1.97
2023-04-09T01:53:34.371Z,1.93
2023-04-09T01:56:43.775Z,1.81
2023-04-09T01:59:51.316Z,1.62
2023-04-09T02:02:59.202Z,1.57
2023-04-09T02:06:16.320Z,1.40
2023-04-09T02:09:22.642Z,1.39
2023-04-09T02:12:27.937Z,1.37
2023-04-09T02:15:35.731Z,1.31
2023-04-09T02:18:40.887Z,1.23
2023-04-09T02:21:45.960Z,1.30
2023-04-09T02:24:51.097Z,1.53
2023-04-09T02:27:56.490Z,1.57
2023-04-09T02:31:02.750Z,1.61
2023-04-09T02:34:08.512Z,1.68
2023-04-09T02:37:14.269Z,1.58
2023-04-09T02:40:19.184Z,1.66
2023-04-09T02:43:23.969Z,1.57
2023-04-09T02:46:30.276Z,1.51
2023-04-09T02:49:35.046Z,1.44
2023-04-09T02:52:39.694Z,1.38
2023-04-09T02:55:44.582Z,1.25
2023-04-09T02:58:54.083Z,1.14
2023-04-09T03:02:01.030Z,1.15
2023-04-09T03:05:06.784Z,1.13
2023-04-09T03:08:15.136Z,1.09
2023-04-09T03:11:20.670Z,1.00
2023-04-09T03:14:25.479Z,0.94
2023-04-09T03:17:32.200Z,0.92
2023-04-09T03:20:38.749Z,0.96
2023-04-09T03:23:47.122Z,0.92
2023-04-09T03:26:51.873Z,0.99
2023-04-09T03:29:57.004Z,0.86
2023-04-09T03:33:09.659Z,0.78
2023-04-09T03:36:25.522Z,0.76
2023-04-09T03:39:34.698Z,0.68
2023-04-09T03:42:40.332Z,0.79
2023-04-09T03:45:46.206Z,0.73
2023-04-09T03:49:02.194Z,0.85
2023-04-09T03:52:15.674Z,0.79
2023-04-09T03:55:24.552Z,0.83
2023-04-09T03:58:30.487Z,0.92
2023-04-09T04:01:36.692Z,0.78
2023-04-09T04:04:43.232Z,0.92
2023-04-09T04:07:49.187Z,0.95
2023-04-09T04:11:04.758Z,1.11
2023-04-09T04:14:11.576Z,1.17
2023-04-09T04:17:21.228Z,1.16
2023-04-09T04:20:29.553Z,1.28
2023-04-09T04:23:42.532Z,1.48
2023-04-09T04:27:01.888Z,1.62
2023-04-09T04:30:12.575Z,1.80
2023-04-09T04:33:30.874Z,1.98
2023-04-09T04:36:38.932Z,2.10
2023-04-09T04:39:46.192Z,2.22
2023-04-09T04:42:54.225Z,2.34
2023-04-09T04:45:59.725Z,2.39
2023-04-09T04:49:07.594Z,2.54
2023-04-09T04:52:21.389Z,2.68
2023-04-09T04:55:30.460Z,2.85
2023-04-09T04:58:38.789Z,2.97
2023-04-09T05:01:44.219Z,3.10
2023-04-09T05:04:51.691Z,3.17
2023-04-09T05:08:02.401Z,3.34
2023-04-09T05:11:07.596Z,3.33
2023-04-09T05:14:16.381Z,3.51
2023-04-09T05:17:21.793Z,3.61
2023-04-09T05:20:28.597Z,3.71
2023-04-09T05:23:45.629Z,3.93
2023-04-09T05:26:50.784Z,3.96
2023-04-09T05:29:56.041Z,4.08
2023-04-09T05:33:01.150Z,4.18
2023-04-09T05:36:07.823Z,4.19
2023-04-09T05:39:15.125Z,4.33
2023-04-09T05:42:21.073Z,4.29
2023-04-09T05:45:30.821Z,4.50
2023-04-09T05:48:37.628Z,4.50
2023-04-09T05:51:45.031Z,4.67
2023-04-09T05:54:51.658Z,4.68
2023-04-09T05:58:02.675Z,4.88
2023-04-09T06:01:08.182Z,4.80
2023-04-09T06:04:13.417Z,4.93
2023-04-09T06:07:18.978Z,5.31
2023-04-09T06:10:26.610Z,5.04
2023-04-09T06:13:31.686Z,4.83
2023-04-09T06:16:36.839Z,4.65
2023-04-09T06:19:42.208Z,4.71
2023-04-09T06:22:47.250Z,4.72
2023-04-09T06:25:53.604Z,5.13
2023-04-09T06:28:58.699Z,5.26
2023-04-09T06:32:04.308Z,5.54
2023-04-09T06:35:11.813Z,5.82
2023-04-09T06:38:16.886Z,6.04
2023-04-09T06:41:24.384Z,6.05
2023-04-09T06:44:29.409Z,5.76
2023-04-09T06:47:34.426Z,6.19
2023-04-09T06:50:39.550Z,5.86
2023-04-09T06:53:44.713Z,6.06
2023-04-09T06:56:51.986Z,6.33
2023-04-09T06:59:56.999Z,6.00
2023-04-09T07:03:02.456Z,6.20
2023-04-09T07:06:08.070Z,6.48
2023-04-09T07:09:13.377Z,6.51
2023-04-09T07:12:29.601Z,6.94
2023-04-09T07:15:35.114Z,6.90
2023-04-09T07:18:40.302Z,7.14
2023-04-09T07:21:45.413Z,7.02
2023-04-09T07:24:54.402Z,7.19
2023-04-09T07:28:02.002Z,7.20
2023-04-09T07:31:07.977Z,7.11
2023-04-09T07:34:13.666Z,7.36
2023-04-09T07:37:18.687Z,7.31
2023-04-09T07:40:23.787Z,7.58
2023-04-09T07:43:30.302Z,7.61
2023-04-09T07:46:35.737Z,8.05
2023-04-09T07:49:42.169Z,7.84
2023-04-09T07:52:47.393Z,8.30
2023-04-09T07:55:53.066Z,7.98
2023-04-09T07:58:59.605Z,8.04
2023-04-09T08:02:04.782Z,7.63
2023-04-09T08:05:10.882Z,7.78
2023-04-09T08:08:17.178Z,7.51
2023-04-09T08:11:25.358Z,7.53
2023-04-09T08:14:31.817Z,7.68
2023-04-09T08:17:37.567Z,7.53
2023-04-09T08:20:45.481Z,7.42
2023-04-09T08:23:51.275Z,7.57
2023-04-09T08:26:56.683Z,7.67
2023-04-09T08:30:03.989Z,8.00
2023-04-09T08:33:09.685Z,7.65
2023-04-09T08:36:14.867Z,7.72
2023-04-09T08:39:20.821Z,7.70
2023-04-09T08:42:27.281Z,7.62
2023-04-09T08:45:33.901Z,7.57
2023-04-09T08:48:39.374Z,7.59
2023-04-09T08:51:47.926Z,7.42
2023-04-09T08:54:53.364Z,7.43
2023-04-09T08:57:59.369Z,7.53
2023-04-09T09:01:06.024Z,7.55
2023-04-09T09:04:12.355Z,7.53
2023-04-09T09:07:17.868Z,7.64
2023-04-09T09:10:22.994Z,7.63
2023-04-09T09:13:28.805Z,7.69
2023-04-09T09:16:40.010Z,7.76
2023-04-09T09:19:47.556Z,7.90
2023-04-09T09:22:55.026Z,8.00
2023-04-09T09:26:00.757Z,8.12
2023-04-09T09:29:08.384Z,8.21
2023-04-09T09:32:17.080Z,8.33
2023-04-09T09:35:22.433Z,8.38
2023-04-09T09:38:27.458Z,8.43
2023-04-09T09:41:32.949Z,8.50
2023-04-09T09:44:38.099Z,8.53
2023-04-09T09:47:44.676Z,8.43
2023-04-09T09:50:51.516Z,8.71
2023-04-09T09:53:58.264Z,8.65
2023-04-09T09:57:07.527Z,8.80
2023-04-09T10:00:14.604Z,8.56
2023-04-09T10:03:26.721Z,8.48
2023-04-09T10:06:34.204Z,8.53
2023-04-09T10:09:40.042Z,8.62
2023-04-09T10:12:45.565Z,9.00
2023-04-09T10:15:51.377Z,9.01
2023-04-09T10:18:58.356Z,8.79
2023-04-09T10:22:07.054Z,8.93
2023-04-09T10:25:12.498Z,9.16
2023-04-09T10:28:18.853Z,9.19
2023-04-09T10:31:25.365Z,9.20
2023-04-09T10:34:33.384Z,9.15
2023-04-09T10:37:38.485Z,9.26
2023-04-09T10:40:44.237Z,9.37
2023-04-09T10:43:49.697Z,9.13
2023-04-09T10:46:56.447Z,9.33
2023-04-09T10:50:17.361Z,9.15
2023-04-09T10:53:26.472Z,9.14
2023-04-09T10:56:31.526Z,9.27
2023-04-09T10:59:36.685Z,9.42
2023-04-09T11:03:25.153Z,9.57
2023-04-09T11:06:32.209Z,9.73
2023-04-09T11:09:37.475Z,9.71
2023-04-09T11:12:43.099Z,9.72
2023-04-09T11:15:48.294Z,9.57
2023-04-09T11:18:56.190Z,9.77
2023-04-09T11:22:04.894Z,9.98
2023-04-09T11:25:10.913Z,10.00
2023-04-09T11:28:16.367Z,9.99
2023-04-09T11:31:21.362Z,10.15
2023-04-09T11:34:29.938Z,10.32
2023-04-09T11:37:38.617Z,10.49
2023-04-09T11:40:48.516Z,10.63
2023-04-09T11:43:54.325Z,10.40
2023-04-09T11:46:59.776Z,10.29
2023-04-09T11:50:05.224Z,10.18
2023-04-09T11:53:22.381Z,10.23
2023-04-09T11:56:45.178Z,10.37
2023-04-09T11:59:50.293Z,10.65
2023-04-09T12:03:02.627Z,10.89
2023-04-09T12:06:09.314Z,10.79
2023-04-09T12:09:16.328Z,10.93
2023-04-09T12:12:21.654Z,10.95
2023-04-09T12:15:27.236Z,11.19
2023-04-09T12:18:32.442Z,11.12
2023-04-09T12:21:48.533Z,11.52
2023-04-09T12:24:55.147Z,11.51
2023-04-09T12:28:03.596Z,11.63
2023-04-09T12:31:12.045Z,11.34
2023-04-09T12:34:17.046Z,11.31
2023-04-09T12:37:22.773Z,11.12
2023-04-09T12:40:29.354Z,11.12
2023-04-09T12:43:34.580Z,11.08
2023-04-09T12:46:39.586Z,11.01
2023-04-09T12:49:46.737Z,11.04
2023-04-09T12:52:51.840Z,10.91
2023-04-09T12:56:01.614Z,10.88
2023-04-09T12:59:07.066Z,10.70
2023-04-09T13:02:12.977Z,10.63
2023-04-09T13:05:18.267Z,10.71
2023-04-09T13:08:23.358Z,10.67
2023-04-09T13:11:29.867Z,10.56
2023-04-09T13:14:34.946Z,10.63
2023-04-09T13:17:40.089Z,10.72
2023-04-09T13:20:45.316Z,10.85
2023-04-09T13:23:50.613Z,10.67
2023-04-09T13:26:57.059Z,10.85
2023-04-09T13:30:02.083Z,11.04
2023-04-09T13:33:07.471Z,10.96
2023-04-09T13:36:13.986Z,10.75
2023-04-09T13:39:19.050Z,10.67
2023-04-09T13:42:25.853Z,10.69
2023-04-09T13:45:31.437Z,10.69
2023-04-09T13:48:36.413Z,10.90
2023-04-09T13:51:42.276Z,10.99
2023-04-09T13:54:47.321Z,11.06
2023-04-09T13:57:53.867Z,11.26
2023-04-09T14:00:59.855Z,11.75
2023-04-09T14:04:06.371Z,11.66
2023-04-09T14:07:11.681Z,11.60
2023-04-09T14:10:17.073Z,11.44
2023-04-09T14:13:23.476Z,11.50
2023-04-09T14:16:30.475Z,11.39
2023-04-09T14:19:35.489Z,11.45
2023-04-09T14:22:41.479Z,11.30
2023-04-09T14:25:46.811Z,11.01
2023-04-09T14:28:53.506Z,10.85
2023-04-09T14:31:59.000Z,10.86
2023-04-09T14:35:04.217Z,10.69
2023-04-09T14:38:11.276Z,10.68
2023-04-09T14:41:18.561Z,10.62
2023-04-09T14:44:26.175Z,10.52
2023-04-09T14:47:32.631Z,10.52
2023-04-09T14:50:37.944Z,10.53
2023-04-09T14:53:43.150Z,10.51
2023-04-09T14:56:48.314Z,10.71
2023-04-09T14:59:54.846Z,10.67
2023-04-09T15:03:01.430Z,10.72
2023-04-09T15:06:07.251Z,10.55
2023-04-09T15:09:12.685Z,10.49
2023-04-09T15:12:17.765Z,10.16
2023-04-09T15:15:24.454Z,10.05
2023-04-09T15:18:31.452Z,10.02
2023-04-09T15:21:36.435Z,10.00
2023-04-09T15:24:41.648Z,9.81
2023-04-09T15:27:47.328Z,9.75
2023-04-09T15:30:54.280Z,9.63
2023-04-09T15:33:59.549Z,9.52
2023-04-09T15:37:05.067Z,9.53
2023-04-09T15:40:11.124Z,9.46
2023-04-09T15:43:17.340Z,9.45
2023-04-09T15:46:23.800Z,9.37
2023-04-09T15:49:29.321Z,9.33
2023-04-09T15:52:34.301Z,9.22
2023-04-09T15:55:39.325Z,9.15
2023-04-09T15:58:44.321Z,9.15
2023-04-09T16:01:51.247Z,9.15
2023-04-09T16:04:56.432Z,9.12
2023-04-09T16:08:02.186Z,9.14
2023-04-09T16:11:08.607Z,9.27
2023-04-09T16:14:14.615Z,9.30
2023-04-09T16:17:21.322Z,9.34
2023-04-09T16:20:26.549Z,9.38
2023-04-09T16:23:33.019Z,9.32
2023-04-09T16:26:38.182Z,9.35
2023-04-09T16:29:43.901Z,9.32
2023-04-09T16:32:50.448Z,9.36
2023-04-09T16:35:55.685Z,9.35
2023-04-09T16:39:00.886Z,9.23
2023-04-09T16:42:06.001Z,9.20
2023-04-09T16:45:11.844Z,9.11
2023-04-09T16:48:18.276Z,8.87
2023-04-09T16:51:23.418Z,8.81
2023-04-09T16:54:28.457Z,8.65
2023-04-09T16:57:33.779Z,8.50
2023-04-09T17:00:40.080Z,8.37
2023-04-09T17:03:46.698Z,8.24
2023-04-09T17:06:52.710Z,8.18
2023-04-09T17:09:58.072Z,8.06
2023-04-09T17:13:04.259Z,7.94
2023-04-09T17:16:11.450Z,7.85
2023-04-09T17:19:18.105Z,7.71
2023-04-09T17:22:23.490Z,7.55
2023-04-09T17:25:28.615Z,7.52
2023-04-09T17:28:33.989Z,7.51
2023-04-09T17:31:39.740Z,7.56
2023-04-09T17:34:49.461Z,7.28
2023-04-09T17:37:54.873Z,7.20
2023-04-09T17:40:59.980Z,7.09
2023-04-09T17:44:04.857Z,6.71
2023-04-09T17:47:12.919Z,7.11
2023-04-09T17:50:19.105Z,6.58
2023-04-09T17:53:23.845Z,6.79
2023-04-09T17:56:28.854Z,6.54
2023-04-09T17:59:34.312Z,6.23
2023-04-09T18:02:39.214Z,6.06
2023-04-09T18:05:46.525Z,6.28
2023-04-09T18:08:52.459Z,5.95
2023-04-09T18:11:57.891Z,6.11
2023-04-09T18:15:04.009Z,5.99
2023-04-09T18:18:10.645Z,5.97
2023-04-09T18:21:17.905Z,5.78
2023-04-09T18:24:22.644Z,5.62
2023-04-09T18:27:27.559Z,5.62
2023-04-09T18:30:36.128Z,5.43
2023-04-09T18:33:41.326Z,5.34
2023-04-09T18:36:47.470Z,5.29
2023-04-09T18:39:52.167Z,5.56
2023-04-09T18:42:56.877Z,5.39
2023-04-09T18:46:01.675Z,5.27
2023-04-09T18:49:06.368Z,5.22
2023-04-09T18:52:14.414Z,5.25
2023-04-09T18:55:19.328Z,5.16
2023-04-09T18:58:24.116Z,5.13
2023-04-09T19:01:28.874Z,5.07
2023-04-09T19:04:36.498Z,4.96
2023-04-09T19:07:43.458Z,5.02
2023-04-09T19:10:48.950Z,4.86
2023-04-09T19:13:53.681Z,4.97
2023-04-09T19:16:58.822Z,4.95
2023-04-09T19:20:04.463Z,4.89
2023-04-09T19:23:10.887Z,4.68
2023-04-09T19:26:15.751Z,4.67
2023-04-09T19:29:21.266Z,4.68
2023-04-09T19:32:26.184Z,4.59
2023-04-09T19:35:33.278Z,4.51
2023-04-09T19:38:39.417Z,4.59
2023-04-09T19:41:44.288Z,4.51
2023-04-09T19:44:48.990Z,4.43
2023-04-09T19:47:55.507Z,4.42
2023-04-09T19:51:00.727Z,4.23
2023-04-09T19:54:07.220Z,4.20
2023-04-09T19:57:11.922Z,4.18
2023-04-09T20:00:16.645Z,4.20
2023-04-09T20:03:22.474Z,4.22
2023-04-09T20:06:29.012Z,4.16
2023-04-09T20:09:41.257Z,4.09
2023-04-09T20:12:47.789Z,4.13
2023-04-09T20:15:52.476Z,4.05
2023-04-09T20:18:57.441Z,4.03
2023-04-09T20:22:02.261Z,3.84
2023-04-09T20:25:08.956Z,3.79
2023-04-09T20:28:14.085Z,3.81
2023-04-09T20:31:18.779Z,3.75
2023-04-09T20:34:26.865Z,3.71
2023-04-09T20:37:31.783Z,3.69
2023-04-09T20:40:38.086Z,3.71
2023-04-09T20:43:42.835Z,3.46
2023-04-09T20:46:47.530Z,3.43
2023-04-09T20:49:53.183Z,3.57
2023-04-09T20:52:58.570Z,3.61
2023-04-09T20:56:05.136Z,3.57
2023-04-09T20:59:09.868Z,3.42
2023-04-09T21:02:14.918Z,3.39
2023-04-09T21:05:23.894Z,3.37
2023-04-09T21:08:29.140Z,3.26
2023-04-09T21:11:35.356Z,3.27
2023-04-09T21:14:40.077Z,3.21
2023-04-09T21:17:44.875Z,3.12
2023-04-09T21:20:49.952Z,3.18
2023-04-09T21:23:55.000Z,3.17
2023-04-09T21:27:02.742Z,3.11
2023-04-09T21:30:08.027Z,3.13
2023-04-09T21:33:12.997Z,3.16
2023-04-09T21:36:17.856Z,3.03
2023-04-09T21:39:22.859Z,3.03
2023-04-09T21:42:31.547Z,2.92
2023-04-09T21:45:36.682Z,2.91
2023-04-09T21:48:41.443Z,2.89
2023-04-09T21:51:46.456Z,2.83
2023-04-09T21:54:51.129Z,2.77
2023-04-09T21:57:57.222Z,2.84
2023-04-09T22:01:02.264Z,2.86
2023-04-09T22:04:07.030Z,2.77
2023-04-09T22:07:12.058Z,2.67
2023-04-09T22:10:16.841Z,2.66
2023-04-09T22:13:22.985Z,2.60
2023-04-09T22:16:27.864Z,2.50
2023-04-09T22:19:32.779Z,2.48
2023-04-09T22:22:38.205Z,2.44
2023-04-09T22:25:42.954Z,2.47
2023-04-09T22:28:48.966Z,2.44
2023-04-09T22:31:53.649Z,2.41
2023-04-09T22:34:58.343Z,2.36
2023-04-09T22:38:03.366Z,2.24
2023-04-09T22:41:08.349Z,2.19
2023-04-09T22:44:15.705Z,2.17
2023-04-09T22:47:21.198Z,2.06
2023-04-09T22:50:27.887Z,2.02
2023-04-09T22:53:32.731Z,2.09
2023-04-09T22:56:37.813Z,2.07
2023-04-09T22:59:44.189Z,1.90
2023-04-09T23:02:50.937Z,1.99
2023-04-09T23:05:55.834Z,2.03
2023-04-09T23:09:00.551Z,2.03
2023-04-09T23:12:06.462Z,2.00
2023-04-09T23:15:14.287Z,1.95
2023-04-09T23:18:19.330Z,1.95
2023-04-09T23:21:24.127Z,1.93
2023-04-09T23:24:28.951Z,1.85
2023-04-09T23:27:35.075Z,1.78
2023-04-09T23:30:41.171Z,1.75
2023-04-09T23:33:46.105Z,1.71
2023-04-09T23:36:51.737Z,1.67
2023-04-09T23:39:56.567Z,1.75
2023-04-09T23:43:02.528Z,1.77
2023-04-09T23:46:08.934Z,1.74
2023-04-09T23:49:13.972Z,1.69
2023-04-09T23:52:18.887Z,1.57
2023-04-09T23:55:24.050Z,1.66
2023-04-09T23:58:28.890Z,1.65
